Time;durP1;ratioP1;P1;durP2;ratioP2;P2;SDS_P1;SDS_P2;PMS_P1;PMS_P2;Temp;Humidity;BMP_temperature;BMP_pressure;BME280_temperature;BME280_humidity;BME280_pressure;Samples;Min_cycle;Max_cycle;Signal;HPM_P1;HPM_P2
2022/04/04 00:00:38;;;;;;;12.27;7.13;;;;;;;2.30;56.38;101127.44;4161512;28;20416;-64
2022/04/04 00:02:41;;;;;;;19.05;9.55;;;;;;;2.32;56.32;101126.72;4163678;28;20042;-64
2022/04/04 00:04:44;;;;;;;11.65;7.05;;;;;;;2.33;56.88;101130.19;4160702;28;20059;-63
2022/04/04 00:06:47;;;;;;;11.73;6.70;;;;;;;2.31;56.32;101122.41;4163918;28;20046;-64
2022/04/04 00:08:51;;;;;;;12.23;7.35;;;;;;;2.32;56.18;101130.97;4165976;28;20116;-64
2022/04/04 00:10:54;;;;;;;11.30;7.72;;;;;;;2.32;56.24;101129.28;4165958;28;20056;-64
2022/04/04 00:12:57;;;;;;;10.95;7.30;;;;;;;2.32;56.22;101126.72;4164184;28;20491;-64
2022/04/04 00:15:00;;;;;;;12.43;7.45;;;;;;;2.30;56.18;101132.59;4165690;28;20128;-64
2022/04/04 00:17:03;;;;;;;11.20;7.80;;;;;;;2.32;56.12;101134.41;4166834;28;20033;-64
2022/04/04 00:19:06;;;;;;;11.27;7.45;;;;;;;2.32;56.34;101136.09;4164981;28;20048;-64
2022/04/04 00:21:10;;;;;;;10.77;6.68;;;;;;;2.29;56.26;101134.25;4166106;28;20041;-64
2022/04/04 00:23:13;;;;;;;12.38;7.53;;;;;;;2.30;55.98;101125.75;4165481;28;20446;-65
2022/04/04 00:25:18;;;;;;;10.68;6.85;;;;;;;2.28;56.53;101122.22;4164488;28;20033;-64
2022/04/04 00:27:20;;;;;;;12.52;7.75;;;;;;;2.24;56.79;101122.84;4165257;28;20035;-64
2022/04/04 00:29:25;;;;;;;10.68;6.93;;;;;;;2.26;56.69;101123.81;4180195;28;20029;-64
2022/04/04 00:31:28;;;;;;;10.60;7.40;;;;;;;2.24;56.67;101123.72;4165745;28;20053;-64
2022/04/04 00:33:31;;;;;;;10.45;7.47;;;;;;;2.23;56.53;101118.50;4165730;28;20041;-64
2022/04/04 00:35:34;;;;;;;11.80;7.78;;;;;;;2.22;57.02;101112.50;4164092;28;20072;-64
2022/04/04 00:37:38;;;;;;;13.07;8.25;;;;;;;2.20;56.82;101120.88;4164329;28;20538;-64
2022/04/04 00:39:41;;;;;;;10.65;7.55;;;;;;;2.18;57.03;101115.66;4164481;28;20095;-64
2022/04/04 00:41:45;;;;;;;10.73;7.40;;;;;;;2.17;57.67;101105.31;4165567;28;20462;-64
2022/04/04 00:43:51;;;;;;;10.73;7.28;;;;;;;2.11;57.41;101110.97;4164404;28;20124;-64
2022/04/04 00:45:54;;;;;;;12.75;8.35;;;;;;;2.06;58.11;101108.16;4164482;28;20037;-64
2022/04/04 00:47:57;;;;;;;12.55;7.65;;;;;;;2.06;58.31;101105.56;4180641;28;20037;-64
2022/04/04 00:50:00;;;;;;;12.10;8.27;;;;;;;2.02;58.52;101103.63;4165422;28;20389;-64
2022/04/04 00:52:03;;;;;;;11.15;7.97;;;;;;;2.02;58.66;101103.63;4165199;28;20477;-64
2022/04/04 00:54:07;;;;;;;12.18;8.85;;;;;;;1.95;59.14;101106.63;4165604;28;20072;-64
2022/04/04 00:56:12;;;;;;;13.23;8.77;;;;;;;1.93;59.59;101103.09;4165548;28;20036;-64
2022/04/04 00:58:19;;;;;;;15.07;8.50;;;;;;;1.97;59.55;101099.00;4165287;28;20047;-64
2022/04/04 01:00:22;;;;;;;12.93;8.93;;;;;;;1.96;59.33;101098.13;4165070;28;20552;-63
2022/04/04 01:02:25;;;;;;;9.98;7.88;;;;;;;1.95;60.07;101096.34;4158328;28;20029;-63
2022/04/04 01:04:29;;;;;;;10.38;8.07;;;;;;;1.96;59.87;101093.00;4163120;28;20128;-63
2022/04/04 01:06:32;;;;;;;13.05;8.50;;;;;;;1.93;60.23;101087.69;4163714;28;21475;-63
2022/04/04 01:08:35;;;;;;;11.02;7.90;;;;;;;1.92;60.48;101091.06;4165207;28;20065;-62
2022/04/04 01:10:38;;;;;;;11.40;8.32;;;;;;;1.89;60.42;101089.19;4165983;28;20489;-65
2022/04/04 01:12:51;;;;;;;15.30;8.95;;;;;;;1.90;60.95;101084.97;4165320;28;20449;-64
2022/04/04 01:14:55;;;;;;;15.45;8.90;;;;;;;1.83;61.06;101086.25;4160945;28;20037;-64
2022/04/04 01:16:58;;;;;;;12.77;8.77;;;;;;;1.82;61.19;101088.75;4164817;28;20041;-64
2022/04/04 01:19:01;;;;;;;13.38;9.70;;;;;;;1.81;61.26;101079.28;4165172;28;20061;-64
2022/04/04 01:21:04;;;;;;;13.73;9.15;;;;;;;1.80;61.44;101085.22;4163740;28;20033;-64
2022/04/04 01:23:07;;;;;;;12.65;9.35;;;;;;;1.80;61.33;101088.66;4165063;28;20056;-64
2022/04/04 01:25:12;;;;;;;13.02;9.00;;;;;;;1.80;61.30;101083.53;4178774;28;20048;-64
2022/04/04 01:27:15;;;;;;;14.43;10.02;;;;;;;1.80;61.61;101090.34;4164588;28;20116;-64
2022/04/04 01:29:20;;;;;;;13.02;9.10;;;;;;;1.78;61.59;101085.09;4163361;28;20061;-64
2022/04/04 01:31:23;;;;;;;15.05;10.07;;;;;;;1.78;61.41;101086.78;4160196;28;20030;-64
2022/04/04 01:33:26;;;;;;;12.77;8.98;;;;;;;1.77;61.54;101083.34;4164955;28;20038;-64
2022/04/04 01:35:29;;;;;;;12.15;8.05;;;;;;;1.70;61.73;101074.38;4163177;28;20048;-64
2022/04/04 01:37:32;;;;;;;14.48;9.38;;;;;;;1.71;61.70;101063.34;4165486;28;20045;-64
2022/04/04 01:39:35;;;;;;;12.80;9.35;;;;;;;1.72;61.69;101066.78;4180051;28;20047;-64
2022/04/04 01:41:39;;;;;;;13.30;9.27;;;;;;;1.70;61.64;101069.25;4163413;28;20043;-64
2022/04/04 01:43:42;;;;;;;13.95;9.68;;;;;;;1.68;61.93;101058.03;4164529;28;20491;-64
2022/04/04 01:48:06;;;;;;;14.13;9.13;;;;;;;1.56;62.19;101060.75;4165543;28;20045;-64
2022/04/04 01:50:10;;;;;;;15.07;9.93;;;;;;;1.55;62.29;101056.41;4165401;28;20402;-64
2022/04/04 01:52:13;;;;;;;13.25;9.98;;;;;;;1.53;62.43;101055.47;4164380;28;20076;-64
2022/04/04 01:54:15;;;;;;;16.02;10.05;;;;;;;1.51;61.96;101057.03;4164656;28;20041;-64
2022/04/04 01:56:19;;;;;;;13.77;10.30;;;;;;;1.51;62.26;101053.59;4153398;28;20509;-64
2022/04/04 01:58:24;;;;;;;13.90;10.20;;;;;;;1.45;62.45;101055.78;4164665;28;20116;-64
2022/04/04 02:00:30;;;;;;;12.80;9.13;;;;;;;1.41;62.49;101057.25;4163793;28;20071;-64
2022/04/04 02:02:33;;;;;;;11.85;9.02;;;;;;;1.42;62.68;101055.56;4165413;28;20068;-64
2022/04/04 02:04:36;;;;;;;15.55;10.38;;;;;;;1.46;62.77;101053.31;4163228;28;20045;-64
2022/04/04 02:06:39;;;;;;;17.05;9.88;;;;;;;1.46;62.75;101057.53;4163129;28;20049;-64
2022/04/04 02:08:43;;;;;;;14.07;9.23;;;;;;;1.45;62.45;101050.66;4164048;28;20854;-64
2022/04/04 02:10:46;;;;;;;12.57;9.05;;;;;;;1.44;62.29;101057.44;4163956;28;20046;-64
2022/04/04 02:12:49;;;;;;;14.13;10.70;;;;;;;1.43;62.81;101053.13;4164123;28;20037;-64
2022/04/04 02:14:53;;;;;;;13.38;9.90;;;;;;;1.44;62.85;101067.69;4163515;28;20136;-64
2022/04/04 02:16:56;;;;;;;14.43;9.15;;;;;;;1.44;62.56;101062.56;4163287;28;20065;-64
2022/04/04 02:18:59;;;;;;;12.68;8.15;;;;;;;1.42;62.69;101060.69;4162862;28;20132;-63
2022/04/04 02:21:03;;;;;;;12.38;8.73;;;;;;;1.37;62.36;101057.84;4161935;28;20132;-63
2022/04/04 02:23:06;;;;;;;13.05;9.25;;;;;;;1.34;62.43;101063.72;4162791;28;20037;-64
2022/04/04 02:25:10;;;;;;;12.37;9.07;;;;;;;1.32;62.62;101054.16;4161832;28;20065;-64
2022/04/04 02:27:13;;;;;;;13.20;9.00;;;;;;;1.32;62.84;101052.47;4161956;28;20041;-64
2022/04/04 02:29:16;;;;;;;14.73;10.50;;;;;;;1.33;63.18;101050.78;4161288;28;20132;-64
2022/04/04 02:31:21;;;;;;;15.88;9.40;;;;;;;1.31;62.82;101053.25;4163709;28;20087;-64
2022/04/04 02:33:24;;;;;;;15.43;9.27;;;;;;;1.25;63.27;101057.13;4155959;28;20037;-64
2022/04/04 02:35:29;;;;;;;13.57;10.25;;;;;;;1.24;63.04;101061.34;4164390;28;20041;-64
2022/04/04 02:37:31;;;;;;;13.37;9.17;;;;;;;1.28;62.78;101054.75;4163840;28;20059;-64
2022/04/04 02:39:34;;;;;;;14.52;10.05;;;;;;;1.30;62.95;101048.03;4178830;28;20401;-64
2022/04/04 02:41:37;;;;;;;14.00;9.27;;;;;;;1.31;63.32;101053.25;4163793;28;20427;-64
2022/04/04 02:43:41;;;;;;;13.25;9.90;;;;;;;1.30;62.74;101048.94;4178618;28;20047;-64
2022/04/04 02:45:44;;;;;;;12.98;8.98;;;;;;;1.20;63.17;101054.28;4145584;28;20065;-64
2022/04/04 02:47:48;;;;;;;14.25;10.27;;;;;;;1.17;63.77;101051.53;4163855;28;20041;-64
2022/04/04 02:49:51;;;;;;;12.05;9.82;;;;;;;1.02;63.60;101054.91;4178622;28;20043;-64
2022/04/04 02:51:54;;;;;;;12.32;9.75;;;;;;;1.04;63.61;101055.00;4146876;28;20410;-64
2022/04/04 02:53:57;;;;;;;13.52;9.25;;;;;;;1.08;64.21;101056.06;4163555;28;20035;-64
2022/04/04 02:58:20;;;;;;;14.43;10.40;;;;;;;1.10;64.18;101054.50;4163152;28;20479;-64
2022/04/04 03:00:24;;;;;;;17.02;11.45;;;;;;;1.06;64.38;101052.53;4154166;28;20390;-64
2022/04/04 03:02:27;;;;;;;15.20;10.15;;;;;;;1.01;64.55;101045.47;4162991;28;20487;-64
2022/04/04 03:04:31;;;;;;;14.75;9.52;;;;;;;1.03;64.17;101050.69;4162049;28;20095;-64
2022/04/04 03:06:35;;;;;;;10.90;8.45;;;;;;;1.01;64.59;101048.03;4163171;28;20041;-64
2022/04/04 03:08:38;;;;;;;16.55;11.05;;;;;;;1.01;64.37;101045.47;4178585;28;20041;-64
2022/04/04 03:10:41;;;;;;;13.90;10.27;;;;;;;1.12;63.17;101040.13;4163100;28;20051;-64
2022/04/04 03:12:46;;;;;;;20.55;10.43;;;;;;;1.09;63.41;101045.06;4162666;28;20034;-63
2022/04/04 03:14:48;;;;;;;15.32;10.57;;;;;;;1.03;64.06;101040.44;4162982;28;20044;-64
2022/04/04 03:16:51;;;;;;;15.02;10.98;;;;;;;1.00;64.03;101046.25;4163411;28;20045;-63
2022/04/04 03:18:55;;;;;;;13.77;10.13;;;;;;;0.93;63.47;101040.66;4163149;28;20068;-63
2022/04/04 03:20:59;;;;;;;16.60;11.07;;;;;;;0.95;63.63;101047.66;4162980;28;20029;-63
2022/04/04 03:23:02;;;;;;;14.77;10.73;;;;;;;0.94;63.47;101040.75;4163291;28;20125;-63
2022/04/04 03:25:06;;;;;;;13.75;9.52;;;;;;;0.93;64.11;101038.09;4161808;28;20514;-64
2022/04/04 03:27:13;;;;;;;14.13;9.52;;;;;;;0.96;63.51;101033.16;4162513;28;20061;-63
2022/04/04 03:29:16;;;;;;;13.57;10.07;;;;;;;0.96;63.63;101034.03;4162196;28;20063;-64
2022/04/04 03:31:19;;;;;;;13.10;9.85;;;;;;;0.93;64.29;101038.09;4161766;28;20573;-64
2022/04/04 03:33:22;;;;;;;16.35;10.75;;;;;;;0.93;64.35;101030.41;4161673;28;20045;-63
2022/04/04 03:35:27;;;;;;;14.82;10.10;;;;;;;0.95;64.22;101029.72;4160756;28;20084;-64
2022/04/04 03:37:32;;;;;;;;;;;;;;;0.77;64.07;101031.13;4164367;28;20041;-64
2022/04/04 03:39:35;;;;;;;14.88;10.07;;;;;;;0.79;64.14;101024.41;4162425;28;19975;-64
2022/04/04 03:41:38;;;;;;;14.98;10.48;;;;;;;0.78;63.94;101032.91;4165739;28;20120;-64
2022/04/04 03:43:41;;;;;;;15.50;10.95;;;;;;;0.76;64.16;101026.78;4165734;28;20502;-64
2022/04/04 03:45:44;;;;;;;17.83;11.90;;;;;;;0.73;64.97;101019.81;4163416;28;20083;-64
2022/04/04 03:47:48;;;;;;;13.50;9.65;;;;;;;0.68;64.24;101014.41;4166397;28;20440;-64
2022/04/04 03:49:51;;;;;;;14.27;10.77;;;;;;;0.68;64.78;101011.84;4166365;28;20072;-63
2022/04/04 03:51:54;;;;;;;14.70;11.27;;;;;;;0.72;64.47;101012.06;4166346;28;20483;-63
2022/04/04 03:53:59;;;;;;;16.42;11.25;;;;;;;0.74;64.92;101010.47;4165215;28;20044;-63
2022/04/04 03:56:02;;;;;;;13.98;10.25;;;;;;;0.74;65.14;101013.03;4165752;28;20057;-63
2022/04/04 03:58:08;;;;;;;14.00;10.45;;;;;;;0.76;65.19;101008.88;4166377;28;20030;-63
2022/04/04 04:00:12;;;;;;;14.38;10.05;;;;;;;0.77;64.41;101003.84;4165317;28;20046;-63
2022/04/04 04:02:15;;;;;;;14.80;10.82;;;;;;;0.78;64.10;101002.19;4165574;28;20402;-63
2022/04/04 04:04:18;;;;;;;13.55;10.90;;;;;;;0.75;64.05;101002.88;4165985;28;20033;-64
2022/04/04 04:06:21;;;;;;;15.82;11.60;;;;;;;0.75;64.44;101002.00;4163965;28;20048;-65
2022/04/04 04:08:24;;;;;;;16.55;11.93;;;;;;;0.77;64.76;100998.72;4172451;28;20040;-65
2022/04/04 04:10:29;;;;;;;14.25;10.07;;;;;;;0.76;64.13;100988.41;4179593;28;20037;-64
2022/04/04 04:12:32;;;;;;;14.65;11.10;;;;;;;0.72;64.19;100994.16;4166877;28;20702;-65
2022/04/04 04:14:36;;;;;;;16.42;11.05;;;;;;;0.86;64.00;100991.66;4164479;28;20128;-65
2022/04/04 04:16:40;;;;;;;13.43;9.75;;;;;;;0.74;64.03;100995.13;4163906;28;20037;-64
2022/04/04 04:18:44;;;;;;;15.13;10.95;;;;;;;0.96;63.39;100982.84;4166315;28;20078;-66
2022/04/04 04:20:46;;;;;;;13.73;11.38;;;;;;;0.78;63.52;100987.72;4162668;28;20495;-66
2022/04/04 04:22:52;;;;;;;20.73;11.65;;;;;;;0.69;64.07;100982.91;4166602;28;20038;-66
2022/04/04 04:24:55;;;;;;;16.58;12.10;;;;;;;0.84;63.53;100984.66;4165278;28;20410;-66
2022/04/04 04:26:59;;;;;;;16.45;12.65;;;;;;;0.82;63.01;100982.00;4164368;28;20494;-66
2022/04/04 04:29:02;;;;;;;17.33;12.70;;;;;;;0.69;64.15;100982.91;4164988;28;20065;-66
2022/04/04 04:31:05;;;;;;;15.60;10.90;;;;;;;0.62;63.84;100987.56;4163872;28;20042;-66
2022/04/04 04:33:08;;;;;;;16.27;11.23;;;;;;;0.67;65.37;100983.59;4161341;28;20065;-66
2022/04/04 04:35:12;;;;;;;18.40;11.27;;;;;;;0.66;64.35;100981.84;4170844;28;20395;-66
2022/04/04 04:37:15;;;;;;;16.20;12.13;;;;;;;0.68;64.34;100981.13;4160902;28;20061;-66
2022/04/04 04:39:18;;;;;;;18.42;12.70;;;;;;;0.75;64.08;100977.28;4163996;28;20033;-66
2022/04/04 04:41:21;;;;;;;16.25;11.93;;;;;;;0.77;64.11;100974.81;4163292;28;20091;-66
2022/04/04 04:43:26;;;;;;;16.80;12.25;;;;;;;0.74;63.85;100980.63;4165099;28;20034;-66
2022/04/04 04:45:29;;;;;;;19.08;12.68;;;;;;;0.76;63.63;100979.06;4163542;28;20069;-66
2022/04/04 04:47:32;;;;;;;15.55;11.15;;;;;;;0.69;64.51;100976.91;4163783;28;20129;-66
2022/04/04 04:49:36;;;;;;;16.67;11.88;;;;;;;0.77;63.91;100975.69;4165422;28;20494;-66
2022/04/04 04:51:39;;;;;;;16.58;12.07;;;;;;;0.74;64.14;100977.19;4180612;28;20037;-66
2022/04/04 04:53:42;;;;;;;16.63;11.27;;;;;;;0.68;64.05;100981.13;4166376;28;20092;-66
2022/04/04 04:55:46;;;;;;;17.55;12.13;;;;;;;0.68;64.20;100983.69;4165950;28;20414;-66
2022/04/04 04:57:51;;;;;;;16.70;11.82;;;;;;;0.69;64.37;100977.78;4166371;28;20038;-66
2022/04/04 04:59:55;;;;;;;13.50;10.77;;;;;;;0.65;63.90;100975.81;4165181;28;20073;-66
2022/04/04 05:01:58;;;;;;;16.75;13.05;;;;;;;0.68;64.76;100975.13;4166268;28;20120;-66
2022/04/04 05:04:01;;;;;;;17.90;12.18;;;;;;;0.61;64.52;100970.44;4164971;28;20049;-66
2022/04/04 05:06:05;;;;;;;19.27;12.25;;;;;;;0.78;64.39;100962.13;4165854;28;20042;-66
2022/04/04 05:08:09;;;;;;;14.85;11.27;;;;;;;0.63;65.10;100969.75;4166173;28;20037;-66
2022/04/04 05:10:12;;;;;;;15.23;11.65;;;;;;;0.61;65.27;100967.88;4166513;28;20491;-66
2022/04/04 05:12:15;;;;;;;19.75;12.05;;;;;;;0.59;65.43;100965.22;4166010;28;20038;-66
2022/04/04 05:14:22;;;;;;;17.13;12.88;;;;;;;0.58;65.43;100958.31;4166383;28;20060;-66
2022/04/04 05:16:28;;;;;;;16.38;11.77;;;;;;;0.58;65.50;100963.44;4165680;28;20042;-66
2022/04/04 05:18:31;;;;;;;13.77;10.10;;;;;;;0.54;65.51;100963.16;4166060;28;20159;-66
2022/04/04 05:20:34;;;;;;;18.67;12.20;;;;;;;0.62;65.06;100962.84;4166133;28;20040;-66
2022/04/04 05:22:37;;;;;;;15.60;11.80;;;;;;;0.61;65.36;100963.63;4165878;28;20037;-66
2022/04/04 05:24:40;;;;;;;15.18;12.18;;;;;;;0.66;65.15;100961.38;4181309;28;20131;-66
2022/04/04 05:26:43;;;;;;;16.00;11.60;;;;;;;0.61;65.44;100968.75;4165704;28;20125;-66
2022/04/04 05:28:46;;;;;;;14.60;10.60;;;;;;;0.69;65.48;100966.69;4165978;28;20494;-66
2022/04/04 05:30:49;;;;;;;16.23;11.57;;;;;;;0.65;65.10;100950.25;4164780;28;20250;-66
2022/04/04 05:32:54;;;;;;;13.98;10.05;;;;;;;0.67;65.80;100960.56;4165721;28;20464;-66
2022/04/04 05:34:57;;;;;;;17.95;11.80;;;;;;;0.64;65.82;100962.94;4165780;28;20499;-66
2022/04/04 05:37:00;;;;;;;15.15;10.60;;;;;;;0.62;66.00;100959.41;4164553;28;20071;-66
2022/04/04 05:39:05;;;;;;;16.75;11.77;;;;;;;0.67;65.56;100961.47;4165703;28;20120;-66
2022/04/04 05:41:08;;;;;;;15.35;11.15;;;;;;;0.72;65.59;100948.09;4165730;28;20487;-66
2022/04/04 05:43:11;;;;;;;16.35;11.13;;;;;;;0.68;65.59;100949.56;4180922;28;20048;-66
2022/04/04 05:45:14;;;;;;;16.58;11.77;;;;;;;0.73;66.22;100953.28;4165414;28;20086;-66
2022/04/04 05:47:19;;;;;;;15.27;10.85;;;;;;;0.98;64.76;100950.56;4165553;28;20418;-66
2022/04/04 05:49:24;;;;;;;13.63;10.35;;;;;;;0.84;65.30;100959.06;4165543;28;20041;-66
2022/04/04 05:51:28;;;;;;;13.10;9.90;;;;;;;0.82;65.38;100950.41;4180768;28;20055;-66
2022/04/04 05:53:45;;;;;;;16.75;11.00;;;;;;;0.99;65.44;100952.31;4165503;28;20041;-66
2022/04/04 05:55:48;;;;;;;17.88;11.75;;;;;;;0.91;64.96;100950.97;4165107;28;20406;-66
2022/04/04 05:57:51;;;;;;;14.27;10.48;;;;;;;0.96;65.38;100949.56;4165691;28;20048;-66
2022/04/04 05:59:55;;;;;;;13.95;10.52;;;;;;;0.91;65.07;100953.53;4165357;28;20056;-66
2022/04/04 06:01:57;;;;;;;15.40;11.38;;;;;;;0.93;64.70;100951.06;4165468;28;20029;-65
2022/04/04 06:04:02;;;;;;;14.63;10.88;;;;;;;1.00;65.02;100959.19;4164867;28;20065;-66
2022/04/04 06:06:07;;;;;;;13.15;9.73;;;;;;;1.03;64.96;100955.94;4165031;28;20049;-65
2022/04/04 06:08:09;;;;;;;14.82;10.25;;;;;;;1.11;64.45;100949.63;4165437;28;20079;-66
2022/04/04 06:10:13;;;;;;;17.25;11.00;;;;;;;1.10;64.36;100955.53;4165378;28;20140;-66
2022/04/04 06:12:16;;;;;;;14.95;10.35;;;;;;;1.16;64.98;100949.91;4180402;28;20494;-66
2022/04/04 06:14:19;;;;;;;16.10;11.10;;;;;;;1.19;64.29;100955.19;4165096;28;20037;-65
2022/04/04 06:16:22;;;;;;;15.30;11.48;;;;;;;1.24;65.14;100951.22;4164865;28;20503;-66
2022/04/04 06:18:25;;;;;;;17.92;11.73;;;;;;;1.43;63.85;100953.22;4165116;28;20494;-66
2022/04/04 06:20:28;;;;;;;18.70;11.20;;;;;;;1.47;63.36;100956.84;4165040;28;20051;-66
2022/04/04 06:22:36;;;;;;;18.45;11.85;;;;;;;1.44;63.82;100948.97;4165062;28;20107;-66
2022/04/04 06:24:39;;;;;;;17.35;11.20;;;;;;;1.54;62.91;100949.59;4164873;28;20128;-66
2022/04/04 06:26:43;;;;;;;15.32;10.50;;;;;;;1.45;63.03;100948.19;4164833;28;20506;-66
2022/04/04 06:28:46;;;;;;;14.55;10.38;;;;;;;1.41;63.10;100944.53;4164984;28;20120;-66
2022/04/04 06:30:49;;;;;;;15.52;10.73;;;;;;;1.45;63.33;100940.50;4163595;28;20437;-66
2022/04/04 06:32:52;;;;;;;18.23;9.68;;;;;;;1.57;63.21;100942.06;4162323;28;20041;-66
2022/04/04 06:34:55;;;;;;;15.20;10.02;;;;;;;1.68;63.35;100942.72;4164331;28;20033;-66
2022/04/04 06:36:58;;;;;;;15.55;10.65;;;;;;;1.81;62.82;100940.84;4180418;28;20082;-66
2022/04/04 06:39:02;;;;;;;15.88;9.10;;;;;;;1.81;62.36;100935.72;4180340;28;20050;-66
2022/04/04 06:41:05;;;;;;;14.85;9.77;;;;;;;1.80;62.21;100941.66;4163854;28;20137;-66
2022/04/04 06:43:08;;;;;;;17.05;10.98;;;;;;;1.92;61.54;100938.09;4164728;28;20124;-66
2022/04/04 06:45:13;;;;;;;14.32;10.40;;;;;;;2.06;61.54;100933.75;4179521;28;20036;-66
2022/04/04 06:47:16;;;;;;;15.05;10.00;;;;;;;2.17;61.00;100936.91;4164695;28;20137;-66
2022/04/04 06:49:18;;;;;;;13.55;9.57;;;;;;;2.13;60.92;100934.09;4163581;28;20073;-66
2022/04/04 06:51:21;;;;;;;13.38;8.90;;;;;;;2.14;60.79;100935.88;4164651;28;20072;-66
2022/04/04 06:53:24;;;;;;;16.00;9.80;;;;;;;2.10;60.57;100927.09;4164553;28;20036;-66
2022/04/04 06:55:31;;;;;;;13.73;9.40;;;;;;;2.31;59.85;100930.00;4163097;28;20107;-66
2022/04/04 06:57:34;;;;;;;13.13;8.85;;;;;;;2.37;60.03;100925.19;4163396;28;20060;-66
2022/04/04 06:59:36;;;;;;;15.10;9.52;;;;;;;2.44;59.22;100913.59;4164486;28;20042;-66
2022/04/04 07:01:39;;;;;;;16.30;9.27;;;;;;;2.39;59.23;100921.00;4163201;28;20045;-66
2022/04/04 07:03:42;;;;;;;19.27;10.02;;;;;;;2.44;58.99;100914.47;4163206;28;20120;-66
2022/04/04 07:05:45;;;;;;;14.18;9.90;;;;;;;2.32;58.49;100918.91;4162940;28;20041;-66
2022/04/04 07:07:48;;;;;;;13.80;9.02;;;;;;;2.49;58.70;100913.84;4179701;28;20043;-66
2022/04/04 07:09:51;;;;;;;13.02;9.00;;;;;;;2.51;59.30;100913.13;4164352;28;20131;-66
2022/04/04 07:11:55;;;;;;;13.63;8.82;;;;;;;2.73;58.42;100907.44;4164290;28;20037;-66
2022/04/04 07:13:58;;;;;;;14.57;9.15;;;;;;;2.73;57.88;100904.88;4164220;28;20036;-66
2022/04/04 07:16:01;;;;;;;18.75;8.98;;;;;;;2.61;57.96;100909.34;4163149;28;20045;-66
2022/04/04 07:18:04;;;;;;;14.32;9.32;;;;;;;2.71;58.13;100909.03;4164346;28;20041;-66
2022/04/04 07:20:08;;;;;;;12.68;7.85;;;;;;;2.74;57.30;100903.19;4162982;28;20047;-66
2022/04/04 07:22:11;;;;;;;11.97;8.10;;;;;;;2.78;58.30;100898.28;4164250;28;20041;-66
2022/04/04 07:24:14;;;;;;;16.23;8.45;;;;;;;2.90;56.01;100892.91;4164243;28;20379;-66
2022/04/04 07:26:19;;;;;;;13.77;7.97;;;;;;;2.84;56.42;100896.88;4163845;28;20045;-66
2022/04/04 07:28:24;;;;;;;12.25;7.47;;;;;;;2.91;57.51;100888.69;4164021;28;20073;-66
2022/04/04 07:30:27;;;;;;;15.20;8.65;;;;;;;3.04;57.13;100896.22;4164149;28;20128;-65
2022/04/04 07:32:30;;;;;;;12.90;7.95;;;;;;;3.26;55.52;100890.47;4164001;28;20132;-65
2022/04/04 07:34:33;;;;;;;12.10;7.85;;;;;;;3.24;56.02;100886.97;4164106;28;20140;-66
2022/04/04 07:36:36;;;;;;;11.68;8.30;;;;;;;3.31;55.01;100888.13;4163830;28;20133;-66
2022/04/04 07:38:38;;;;;;;12.68;8.00;;;;;;;3.39;54.09;100891.97;4164019;28;20052;-66
2022/04/04 07:40:41;;;;;;;11.63;7.43;;;;;;;3.39;53.83;100894.56;4164110;28;20129;-66
2022/04/04 07:42:46;;;;;;;11.77;7.88;;;;;;;3.55;53.44;100887.59;4164014;28;20128;-65
2022/04/04 07:44:51;;;;;;;12.95;7.40;;;;;;;3.63;54.07;100887.16;4163825;28;20041;-66
2022/04/04 07:46:54;;;;;;;12.25;7.72;;;;;;;3.76;52.96;100891.22;4164093;28;20069;-65
2022/04/04 07:48:57;;;;;;;11.23;7.47;;;;;;;3.78;52.85;100887.06;4163947;28;20453;-66
2022/04/04 07:51:00;;;;;;;12.13;7.20;;;;;;;3.72;53.08;100876.44;4164020;28;20064;-66
2022/04/04 07:53:03;;;;;;;10.13;7.10;;;;;;;3.75;52.49;100880.84;4163815;28;20037;-65
2022/04/04 07:55:07;;;;;;;12.60;8.10;;;;;;;3.94;52.87;100878.38;4162232;28;20438;-66
2022/04/04 07:57:10;;;;;;;11.68;6.97;;;;;;;3.93;52.55;100871.47;4162697;28;20041;-66
2022/04/04 07:59:13;;;;;;;11.70;6.93;;;;;;;4.09;52.58;100865.34;4163842;28;20128;-66
2022/04/04 08:01:17;;;;;;;12.18;7.30;;;;;;;4.19;51.88;100870.13;4162665;28;20131;-66
2022/04/04 08:03:23;;;;;;;9.52;6.95;;;;;;;4.17;51.04;100870.84;4163901;28;20197;-66
2022/04/04 08:05:27;;;;;;;11.30;7.30;;;;;;;4.15;51.73;100863.06;4163686;28;20041;-65
2022/04/04 08:07:31;;;;;;;11.57;7.45;;;;;;;4.19;51.66;100859.81;4163888;28;20462;-66
2022/04/04 08:09:34;;;;;;;12.27;6.88;;;;;;;4.23;51.68;100859.97;4163933;28;20140;-66
2022/04/04 08:11:37;;;;;;;12.60;7.38;;;;;;;4.32;50.86;100860.38;4164036;28;20068;-65
2022/04/04 08:13:45;;;;;;;11.18;7.03;;;;;;;4.36;50.91;100852.00;4179039;28;20037;-66
2022/04/04 08:15:48;;;;;;;11.10;7.22;;;;;;;4.36;50.47;100850.28;4162237;28;20140;-65
2022/04/04 08:17:52;;;;;;;12.63;7.68;;;;;;;4.34;49.80;100848.47;4159946;28;20128;-66
2022/04/04 08:19:55;;;;;;;9.95;6.70;;;;;;;4.51;49.46;100839.81;4162425;28;20073;-65
2022/04/04 08:21:58;;;;;;;10.52;7.10;;;;;;;4.54;49.72;100849.34;4162624;28;20517;-65
2022/04/04 08:24:01;;;;;;;12.35;6.90;;;;;;;4.55;49.95;100839.13;4162010;28;20036;-65
2022/04/04 08:26:04;;;;;;;12.70;7.82;;;;;;;4.67;49.49;100836.25;4161957;28;20069;-65
2022/04/04 08:28:07;;;;;;;12.15;7.60;;;;;;;4.76;49.60;100827.13;4166753;28;20529;-65
2022/04/04 08:30:12;;;;;;;9.20;6.45;;;;;;;4.77;49.18;100827.19;4166755;28;20137;-65
2022/04/04 08:32:16;;;;;;;9.77;7.78;;;;;;;4.79;48.78;100828.16;4165540;28;20042;-64
2022/04/04 08:34:21;;;;;;;10.60;6.43;;;;;;;4.87;48.44;100826.78;4181923;28;20043;-65
2022/04/04 08:36:24;;;;;;;10.45;7.28;;;;;;;4.88;48.47;100819.97;4166365;28;20076;-65
2022/04/04 08:38:27;;;;;;;12.02;7.10;;;;;;;4.98;48.59;100823.78;4166680;28;20449;-65
2022/04/04 08:40:30;;;;;;;11.52;7.40;;;;;;;4.93;48.07;100817.56;4166820;28;20402;-65
2022/04/04 08:42:34;;;;;;;11.73;7.40;;;;;;;4.98;48.38;100819.53;4166748;28;20495;-65
2022/04/04 08:44:39;;;;;;;11.10;7.22;;;;;;;5.21;47.75;100806.72;4181785;28;20048;-65
2022/04/04 08:46:42;;;;;;;11.63;7.90;;;;;;;5.30;48.30;100811.38;4165175;28;20061;-65
2022/04/04 08:48:45;;;;;;;13.68;7.32;;;;;;;5.42;47.49;100807.59;4166483;28;20506;-65
2022/04/04 08:50:49;;;;;;;11.73;6.95;;;;;;;5.32;47.05;100809.75;4181794;28;20079;-64
2022/04/04 08:52:53;;;;;;;12.30;7.53;;;;;;;5.23;47.38;100805.97;4166536;28;20495;-65
2022/04/04 08:55:02;;;;;;;11.43;7.45;;;;;;;5.25;47.54;100806.03;4181210;28;20430;-64
2022/04/04 08:57:05;;;;;;;13.82;7.25;;;;;;;5.32;47.14;100809.75;4166572;28;20044;-65
2022/04/04 08:59:08;;;;;;;12.95;7.85;;;;;;;5.28;47.75;100805.28;4165084;28;20042;-65
2022/04/04 09:01:11;;;;;;;11.35;7.28;;;;;;;5.41;47.32;100799.81;4166230;28;20045;-65
2022/04/04 09:03:20;;;;;;;12.35;8.13;;;;;;;5.64;47.06;100794.72;4166392;28;20124;-65
2022/04/04 09:05:23;;;;;;;12.55;8.45;;;;;;;5.57;47.03;100796.16;4166059;28;20034;-65
2022/04/04 09:07:28;;;;;;;11.77;8.25;;;;;;;5.57;47.45;100789.28;4166194;28;20043;-65
2022/04/04 09:09:38;;;;;;;11.40;7.38;;;;;;;5.80;47.44;100791.91;4181455;28;20140;-65
2022/04/04 09:11:51;;;;;;;13.23;7.07;;;;;;;5.90;47.29;100782.81;4148400;28;20141;-65
2022/04/04 09:14:04;;;;;;;10.45;7.05;;;;;;;6.03;47.00;100771.28;4164960;28;20037;-65
2022/04/04 09:16:08;;;;;;;13.63;7.82;;;;;;;5.94;45.73;100766.63;4164508;28;20068;-65
2022/04/04 09:18:11;;;;;;;11.98;6.75;;;;;;;5.92;45.22;100763.97;4166036;28;20049;-65
2022/04/04 09:20:17;;;;;;;13.13;7.65;;;;;;;5.93;44.83;100762.31;4166037;28;20065;-65
2022/04/04 09:22:21;;;;;;;13.85;7.03;;;;;;;6.09;45.70;100750.88;4165966;28;20056;-65
2022/04/04 09:24:44;;;;;;;11.43;7.70;;;;;;;6.25;44.32;100749.72;4165982;28;20051;-66
2022/04/04 09:26:48;;;;;;;10.98;6.43;;;;;;;6.53;44.96;100749.03;4164559;28;20494;-65
2022/04/04 09:28:51;;;;;;;10.15;6.43;;;;;;;6.71;44.22;100743.59;4165985;28;20409;-65
2022/04/04 09:31:07;;;;;;;11.10;7.13;;;;;;;6.98;44.54;100738.50;4165900;28;20064;-65
2022/04/04 09:33:13;;;;;;;11.18;6.68;;;;;;;7.27;44.31;100733.41;4165917;28;20407;-65
2022/04/04 09:35:18;;;;;;;9.77;6.60;;;;;;;7.26;43.82;100723.88;4180800;28;20051;-66
2022/04/04 09:37:22;;;;;;;9.10;6.25;;;;;;;7.47;43.76;100718.50;4164511;28;20045;-65